Time;durP1;ratioP1;P1;durP2;ratioP2;P2;SDS_P1;SDS_P2;PMS_P1;PMS_P2;Temp;Humidity;BMP_temperature;BMP_pressure;BME280_temperature;BME280_humidity;BME280_pressure;Samples;Min_cycle;Max_cycle;Signal;HPM_P1;HPM_P2
2021/07/27 00:00:50;;;;;;;575.53;491.60;;;;;;;;;;4949602;28;20122;-74
2021/07/27 00:03:16;;;;;;;572.30;486.05;;;;;;;;;;4957901;28;20073;-73
2021/07/27 00:05:42;;;;;;;564.40;470.17;;;;;;;;;;4944537;29;20058;-75
2021/07/27 00:08:08;;;;;;;562.67;476.55;;;;;;;;;;4958413;28;20040;-75
2021/07/27 00:10:35;;;;;;;562.60;480.08;;;;;;;;;;4947652;28;20106;-74
2021/07/27 00:13:01;;;;;;;580.35;483.38;;;;;;;;;;4959158;28;20082;-74
2021/07/27 00:15:27;;;;;;;566.25;476.52;;;;;;;;;;4956479;28;20038;-74
2021/07/27 00:17:54;;;;;;;561.72;476.95;;;;;;;;;;4952091;28;20035;-75
2021/07/27 00:20:20;;;;;;;564.15;480.85;;;;;;;;;;4959274;28;20026;-75
2021/07/27 00:22:46;;;;;;;575.45;490.45;;;;;;;;;;4955391;28;20126;-75
2021/07/27 00:25:14;;;;;;;563.35;483.33;;;;;;;;;;4961393;28;20042;-75
2021/07/27 00:27:40;;;;;;;571.33;485.60;;;;;;;;;;4959342;28;20449;-75
2021/07/27 00:30:07;;;;;;;564.25;481.75;;;;;;;;;;4959672;28;20038;-75
2021/07/27 00:32:35;;;;;;;558.10;468.52;;;;;;;;;;4959632;28;20113;-74
2021/07/27 00:35:03;;;;;;;561.53;480.08;;;;;;;;;;4961179;28;20588;-74
2021/07/27 00:37:31;;;;;;;571.03;485.52;;;;;;;;;;4957286;28;20029;-75
2021/07/27 00:39:57;;;;;;;560.63;477.60;;;;;;;;;;4959836;28;20035;-74
2021/07/27 00:42:23;;;;;;;560.88;479.90;;;;;;;;;;4963744;28;20031;-77
2021/07/27 00:44:49;;;;;;;560.92;485.08;;;;;;;;;;4962655;28;20053;-74
2021/07/27 00:47:15;;;;;;;560.45;477.83;;;;;;;;;;4955940;28;20031;-75
2021/07/27 00:49:41;;;;;;;560.47;473.88;;;;;;;;;;4956730;28;20094;-74
2021/07/27 00:52:08;;;;;;;561.92;469.42;;;;;;;;;;4962812;28;20023;-75
2021/07/27 00:54:34;;;;;;;562.50;476.85;;;;;;;;;;4945345;28;20062;-74
2021/07/27 00:57:00;;;;;;;563.08;477.50;;;;;;;;;;4955201;28;20090;-74
2021/07/27 00:59:29;;;;;;;562.92;478.55;;;;;;;;;;4963856;28;20350;-74
2021/07/27 01:01:55;;;;;;;564.17;476.52;;;;;;;;;;4954156;28;20049;-75
2021/07/27 01:04:22;;;;;;;578.25;492.75;;;;;;;;;;4960814;28;20747;-75
2021/07/27 01:06:48;;;;;;;561.08;475.15;;;;;;;;;;4947325;28;20095;-74
2021/07/27 01:09:14;;;;;;;574.70;491.90;;;;;;;;;;4936710;29;20023;-74
2021/07/27 01:11:43;;;;;;;565.08;477.50;;;;;;;;;;4945774;28;20030;-75
2021/07/27 01:14:09;;;;;;;567.30;481.77;;;;;;;;;;4956073;28;20025;-75
2021/07/27 01:16:36;;;;;;;574.20;486.33;;;;;;;;;;4953622;28;20035;-76
2021/07/27 01:19:22;;;;;;;563.78;473.02;;;;;;;;;;4952815;28;20472;-74
2021/07/27 01:40:57;;;;;;;577.70;482.50;;;;;;;;;;4946376;29;20437;-73
2021/07/27 01:43:29;;;;;;;567.53;482.30;;;;;;;;;;4943679;29;20047;-74
2021/07/27 01:45:56;;;;;;;562.45;483.30;;;;;;;;;;4944793;29;20043;-75
2021/07/27 01:48:29;;;;;;;568.70;489.83;;;;;;;;;;4940478;29;20051;-75
2021/07/27 01:50:58;;;;;;;561.90;478.13;;;;;;;;;;4941502;29;20066;-74
2021/07/27 01:53:33;;;;;;;560.88;477.20;;;;;;;;;;4942030;29;20038;-74
2021/07/27 01:56:00;;;;;;;568.88;474.42;;;;;;;;;;4944033;29;20114;-74
2021/07/27 01:58:26;;;;;;;563.58;476.40;;;;;;;;;;4946965;29;20342;-74
2021/07/27 02:00:52;;;;;;;566.60;482.65;;;;;;;;;;4934584;29;20035;-74
2021/07/27 02:03:18;;;;;;;565.47;482.75;;;;;;;;;;4949277;28;20038;-75
2021/07/27 02:05:45;;;;;;;566.15;482.50;;;;;;;;;;4953223;29;20039;-74
2021/07/27 02:08:12;;;;;;;565.97;483.90;;;;;;;;;;4950748;29;20082;-75
2021/07/27 02:10:39;;;;;;;565.92;482.67;;;;;;;;;;4949599;29;20195;-74
2021/07/27 02:13:15;;;;;;;565.00;474.60;;;;;;;;;;4948723;29;20098;-74
2021/07/27 02:15:42;;;;;;;563.75;470.55;;;;;;;;;;4946183;29;20031;-74
2021/07/27 02:18:09;;;;;;;565.85;477.25;;;;;;;;;;4950339;29;20031;-75
2021/07/27 02:20:35;;;;;;;563.30;476.00;;;;;;;;;;4949507;29;20558;-75
2021/07/27 02:23:04;;;;;;;566.28;479.45;;;;;;;;;;4950878;29;20705;-74
2021/07/27 02:25:44;;;;;;;562.97;468.17;;;;;;;;;;4947058;29;20118;-76
2021/07/27 02:28:12;;;;;;;564.08;477.55;;;;;;;;;;4952665;29;20501;-75
2021/07/27 02:30:48;;;;;;;562.45;474.45;;;;;;;;;;4937937;29;20042;-74
2021/07/27 02:33:15;;;;;;;566.05;479.33;;;;;;;;;;4953975;29;20024;-74
2021/07/27 02:35:42;;;;;;;567.05;477.02;;;;;;;;;;4959444;28;20030;-74
2021/07/27 02:38:08;;;;;;;561.70;473.42;;;;;;;;;;4962597;28;20541;-74
2021/07/27 02:40:35;;;;;;;567.53;477.50;;;;;;;;;;4962481;28;20023;-75
2021/07/27 02:43:02;;;;;;;564.42;478.63;;;;;;;;;;4962280;28;20106;-78
2021/07/27 02:45:28;;;;;;;564.22;477.58;;;;;;;;;;4965038;28;20031;-75
2021/07/27 02:47:54;;;;;;;567.33;481.33;;;;;;;;;;4961561;28;20026;-74
2021/07/27 02:50:20;;;;;;;564.80;477.90;;;;;;;;;;4946507;28;20042;-74
2021/07/27 02:52:47;;;;;;;566.45;479.38;;;;;;;;;;4964848;28;20042;-75
2021/07/27 02:55:13;;;;;;;566.08;477.52;;;;;;;;;;4956899;28;20065;-74
2021/07/27 02:57:39;;;;;;;564.72;479.58;;;;;;;;;;4962625;28;20089;-74
2021/07/27 03:00:06;;;;;;;563.67;468.75;;;;;;;;;;4948404;28;20039;-74
2021/07/27 03:02:35;;;;;;;565.78;481.98;;;;;;;;;;4963836;28;20035;-74
2021/07/27 03:05:01;;;;;;;570.35;476.83;;;;;;;;;;4964265;28;20035;-74
2021/07/27 03:07:36;;;;;;;562.47;465.73;;;;;;;;;;4958424;28;20102;-74
2021/07/27 03:10:22;;;;;;;566.00;469.40;;;;;;;;;;4960003;28;20041;-75
2021/07/27 03:12:53;;;;;;;569.90;472.30;;;;;;;;;;4967350;28;20022;-77
2021/07/27 03:15:21;;;;;;;566.35;467.65;;;;;;;;;;4962646;28;20031;-74
2021/07/27 03:17:47;;;;;;;561.47;468.55;;;;;;;;;;4957963;28;20023;-74
2021/07/27 03:20:15;;;;;;;567.97;477.77;;;;;;;;;;4947330;28;20114;-74
2021/07/27 03:22:42;;;;;;;569.50;478.10;;;;;;;;;;4961721;28;20058;-73
2021/07/27 03:25:09;;;;;;;569.35;476.15;;;;;;;;;;4960374;28;20031;-74
2021/07/27 03:27:37;;;;;;;567.42;477.58;;;;;;;;;;4963783;28;20361;-74
2021/07/27 03:30:03;;;;;;;564.60;472.17;;;;;;;;;;4959371;28;20018;-74
2021/07/27 03:32:29;;;;;;;564.20;473.52;;;;;;;;;;4958969;28;20097;-74
2021/07/27 03:34:55;;;;;;;564.90;472.90;;;;;;;;;;4966459;28;20058;-73
2021/07/27 03:37:21;;;;;;;565.45;476.00;;;;;;;;;;4966204;28;20046;-74
2021/07/27 03:39:47;;;;;;;566.40;475.70;;;;;;;;;;4955112;28;20032;-74
2021/07/27 03:42:13;;;;;;;563.83;472.40;;;;;;;;;;4971882;28;20046;-74
2021/07/27 03:44:39;;;;;;;562.60;467.05;;;;;;;;;;4969212;28;20042;-74
2021/07/27 03:47:05;;;;;;;564.13;467.17;;;;;;;;;;4960430;28;20420;-74
2021/07/27 03:49:31;;;;;;;564.72;467.75;;;;;;;;;;4964391;28;20038;-73
2021/07/27 03:52:01;;;;;;;557.17;460.20;;;;;;;;;;4965592;28;20027;-73
2021/07/27 03:54:30;;;;;;;560.87;465.00;;;;;;;;;;4964406;28;20113;-74
2021/07/27 03:56:56;;;;;;;563.42;470.58;;;;;;;;;;4965167;28;20289;-74
2021/07/27 03:59:23;;;;;;;559.40;465.27;;;;;;;;;;4945994;29;20378;-74
2021/07/27 04:01:49;;;;;;;558.83;464.65;;;;;;;;;;4965067;28;20034;-75
2021/07/27 04:04:17;;;;;;;563.42;466.77;;;;;;;;;;4956860;28;20066;-73
2021/07/27 04:06:44;;;;;;;561.50;465.52;;;;;;;;;;4960389;28;20015;-75
2021/07/27 04:09:10;;;;;;;560.70;460.45;;;;;;;;;;4956401;28;20053;-74
2021/07/27 04:11:36;;;;;;;562.05;469.65;;;;;;;;;;4958676;28;20023;-74
2021/07/27 04:14:04;;;;;;;584.45;470.50;;;;;;;;;;4961492;28;20122;-74
2021/07/27 04:16:30;;;;;;;565.38;474.77;;;;;;;;;;4953568;28;20110;-75
2021/07/27 04:18:56;;;;;;;562.85;462.05;;;;;;;;;;4956887;28;20118;-73
2021/07/27 04:21:22;;;;;;;565.47;465.77;;;;;;;;;;4962848;28;20465;-74
2021/07/27 04:23:48;;;;;;;559.38;467.25;;;;;;;;;;4966626;28;20027;-74
2021/07/27 04:26:14;;;;;;;561.05;469.63;;;;;;;;;;4960196;28;20031;-74
2021/07/27 04:28:41;;;;;;;564.15;469.48;;;;;;;;;;4958586;28;20428;-74
2021/07/27 04:31:07;;;;;;;566.90;474.95;;;;;;;;;;4960566;28;20034;-74
2021/07/27 04:33:33;;;;;;;578.53;475.67;;;;;;;;;;4939833;29;20047;-74
2021/07/27 04:35:59;;;;;;;559.42;470.90;;;;;;;;;;4941943;29;20090;-74
2021/07/27 04:38:25;;;;;;;560.85;465.52;;;;;;;;;;4940945;29;20047;-76
2021/07/27 04:40:54;;;;;;;564.83;473.63;;;;;;;;;;4950063;28;20031;-77
2021/07/27 04:43:21;;;;;;;562.47;470.98;;;;;;;;;;4934296;29;20031;-74
2021/07/27 04:45:47;;;;;;;561.42;474.65;;;;;;;;;;4928473;29;20554;-74
2021/07/27 04:48:13;;;;;;;558.22;467.00;;;;;;;;;;4944140;29;20027;-74
2021/07/27 04:50:39;;;;;;;560.45;472.60;;;;;;;;;;4942104;29;20124;-75
2021/07/27 04:53:09;;;;;;;562.95;470.13;;;;;;;;;;4944973;29;20101;-75
2021/07/27 04:55:35;;;;;;;563.58;478.33;;;;;;;;;;4935857;29;20027;-74
2021/07/27 04:58:02;;;;;;;565.25;475.33;;;;;;;;;;4924414;29;20036;-74
2021/07/27 05:00:28;;;;;;;561.70;469.58;;;;;;;;;;4945450;29;20046;-75
2021/07/27 05:02:57;;;;;;;560.05;472.45;;;;;;;;;;4941299;29;20031;-76
2021/07/27 05:05:23;;;;;;;559.65;470.67;;;;;;;;;;4945123;29;20050;-74
2021/07/27 05:07:49;;;;;;;560.38;473.35;;;;;;;;;;4928915;29;20023;-74
2021/07/27 05:10:19;;;;;;;561.55;472.23;;;;;;;;;;4945558;29;20062;-74
2021/07/27 05:12:45;;;;;;;557.05;466.85;;;;;;;;;;4924408;29;20035;-74
2021/07/27 05:15:11;;;;;;;560.90;469.92;;;;;;;;;;4939761;29;20095;-74
2021/07/27 05:17:40;;;;;;;566.85;467.05;;;;;;;;;;4936924;29;20373;-75
2021/07/27 05:20:07;;;;;;;561.53;466.80;;;;;;;;;;4942811;29;20102;-74
2021/07/27 05:22:33;;;;;;;559.40;473.20;;;;;;;;;;4940120;29;20028;-74
2021/07/27 05:24:59;;;;;;;559.40;469.45;;;;;;;;;;4923492;29;20043;-74
2021/07/27 05:27:26;;;;;;;560.72;474.52;;;;;;;;;;4939525;29;20036;-74
2021/07/27 05:29:55;;;;;;;568.20;473.25;;;;;;;;;;4927306;29;20019;-75
2021/07/27 05:32:22;;;;;;;559.85;470.08;;;;;;;;;;4939127;29;20032;-74
2021/07/27 05:34:48;;;;;;;557.85;462.20;;;;;;;;;;4956418;28;20046;-75
2021/07/27 05:37:14;;;;;;;565.83;471.77;;;;;;;;;;4957890;28;20031;-76
2021/07/27 05:39:40;;;;;;;554.78;457.38;;;;;;;;;;4965052;28;20033;-75
2021/07/27 05:42:06;;;;;;;559.55;468.40;;;;;;;;;;4956277;28;20024;-75
2021/07/27 05:44:32;;;;;;;551.97;455.55;;;;;;;;;;4960859;28;20066;-75
2021/07/27 05:47:02;;;;;;;560.13;469.48;;;;;;;;;;4952414;28;20027;-75
2021/07/27 05:49:28;;;;;;;556.90;467.67;;;;;;;;;;4958957;28;20106;-75
2021/07/27 05:51:55;;;;;;;558.03;470.35;;;;;;;;;;4964934;28;20039;-75
2021/07/27 05:54:21;;;;;;;560.05;469.45;;;;;;;;;;4958035;28;20710;-75
2021/07/27 05:56:51;;;;;;;558.67;470.00;;;;;;;;;;4959905;28;20031;-74
2021/07/27 05:59:18;;;;;;;560.92;470.80;;;;;;;;;;4961662;28;20027;-75
2021/07/27 06:01:44;;;;;;;557.15;469.35;;;;;;;;;;4963493;28;20065;-75
2021/07/27 06:04:10;;;;;;;557.22;467.02;;;;;;;;;;4964312;28;20872;-74
2021/07/27 06:06:36;;;;;;;559.65;469.70;;;;;;;;;;4960908;28;20039;-74
2021/07/27 06:09:03;;;;;;;572.25;473.60;;;;;;;;;;4942989;28;20034;-74
2021/07/27 06:11:29;;;;;;;554.72;465.77;;;;;;;;;;4957263;28;20418;-74
2021/07/27 06:13:56;;;;;;;557.83;471.10;;;;;;;;;;4958918;28;20552;-75
2021/07/27 06:16:22;;;;;;;560.33;475.35;;;;;;;;;;4954808;28;20039;-74
2021/07/27 06:18:48;;;;;;;562.22;475.58;;;;;;;;;;4959838;28;20023;-75
2021/07/27 06:21:14;;;;;;;554.88;464.60;;;;;;;;;;4958715;28;20054;-75
2021/07/27 06:23:40;;;;;;;560.72;471.45;;;;;;;;;;4963375;28;20039;-75
2021/07/27 06:26:06;;;;;;;556.72;463.52;;;;;;;;;;4960497;28;20047;-75
2021/07/27 06:28:32;;;;;;;563.83;475.08;;;;;;;;;;4962032;28;20045;-74
2021/07/27 06:30:58;;;;;;;561.60;471.27;;;;;;;;;;4964262;28;20022;-74
2021/07/27 06:33:24;;;;;;;556.35;470.13;;;;;;;;;;4969459;28;20061;-74
2021/07/27 06:35:57;;;;;;;560.88;475.15;;;;;;;;;;4970439;28;20066;-75
2021/07/27 06:38:23;;;;;;;558.78;468.88;;;;;;;;;;4955567;28;20015;-74
2021/07/27 06:40:49;;;;;;;564.03;478.10;;;;;;;;;;4951780;28;20084;-74
2021/07/27 06:43:15;;;;;;;558.97;471.58;;;;;;;;;;4952172;28;20058;-75
2021/07/27 06:45:42;;;;;;;559.88;469.80;;;;;;;;;;4973519;28;20110;-76
2021/07/27 06:48:08;;;;;;;560.42;471.13;;;;;;;;;;4975783;28;20053;-74
2021/07/27 06:50:34;;;;;;;561.58;468.80;;;;;;;;;;4975822;28;20114;-74
2021/07/27 06:53:14;;;;;;;566.10;480.98;;;;;;;;;;4968373;28;20102;-76
2021/07/27 06:55:41;;;;;;;565.35;475.52;;;;;;;;;;4961597;28;20059;-75
2021/07/27 06:58:07;;;;;;;559.28;471.08;;;;;;;;;;4977446;28;20022;-75
2021/07/27 07:00:33;;;;;;;559.55;475.05;;;;;;;;;;4976951;28;20398;-75
2021/07/27 07:02:59;;;;;;;560.92;480.40;;;;;;;;;;4977967;28;20049;-75
2021/07/27 07:05:25;;;;;;;560.92;477.13;;;;;;;;;;4962515;28;20108;-74
2021/07/27 07:07:51;;;;;;;558.65;478.77;;;;;;;;;;4969482;28;20114;-75
2021/07/27 07:10:17;;;;;;;557.72;479.50;;;;;;;;;;4962323;28;20029;-75
2021/07/27 07:12:43;;;;;;;559.38;478.13;;;;;;;;;;4965439;28;20034;-75
2021/07/27 07:15:09;;;;;;;560.92;486.35;;;;;;;;;;4969097;28;20515;-74
2021/07/27 07:17:35;;;;;;;562.17;491.50;;;;;;;;;;4964441;28;20050;-75
2021/07/27 07:20:02;;;;;;;562.55;490.33;;;;;;;;;;4961418;28;20037;-76
2021/07/27 07:22:29;;;;;;;561.92;486.90;;;;;;;;;;4946901;28;20127;-74
2021/07/27 07:24:56;;;;;;;560.13;484.45;;;;;;;;;;4952184;28;20544;-76
2021/07/27 07:27:22;;;;;;;564.58;493.58;;;;;;;;;;4944655;28;20035;-74
2021/07/27 07:29:48;;;;;;;564.42;488.20;;;;;;;;;;4965033;28;20347;-80
2021/07/27 07:32:14;;;;;;;559.88;480.73;;;;;;;;;;4960960;28;20136;-75
2021/07/27 07:34:40;;;;;;;557.38;475.17;;;;;;;;;;4947682;28;20051;-75
2021/07/27 07:37:08;;;;;;;562.42;487.60;;;;;;;;;;4950126;28;20126;-75
2021/07/27 07:39:34;;;;;;;558.85;480.10;;;;;;;;;;4961472;28;20026;-74
2021/07/27 07:42:01;;;;;;;560.95;487.25;;;;;;;;;;4964454;28;20031;-75
2021/07/27 07:44:28;;;;;;;564.22;488.02;;;;;;;;;;4956633;28;20625;-75
2021/07/27 07:46:54;;;;;;;567.97;494.55;;;;;;;;;;4962404;28;20029;-74
2021/07/27 07:49:20;;;;;;;563.25;488.23;;;;;;;;;;4957419;28;20600;-74
2021/07/27 07:51:48;;;;;;;562.88;481.92;;;;;;;;;;4943316;28;20023;-74
2021/07/27 07:54:14;;;;;;;565.20;490.85;;;;;;;;;;4961163;28;20051;-76
2021/07/27 07:56:41;;;;;;;562.28;490.08;;;;;;;;;;4962426;28;20034;-76
2021/07/27 07:59:07;;;;;;;562.53;489.23;;;;;;;;;;4956325;28;20233;-76
2021/07/27 08:01:33;;;;;;;563.58;488.42;;;;;;;;;;4958189;28;20341;-75
2021/07/27 08:03:59;;;;;;;569.47;491.67;;;;;;;;;;4956227;28;20031;-76
2021/07/27 08:06:26;;;;;;;568.72;491.63;;;;;;;;;;4958780;28;20031;-75
2021/07/27 08:08:52;;;;;;;565.65;493.58;;;;;;;;;;4958326;28;20031;-75
2021/07/27 08:11:18;;;;;;;571.85;503.40;;;;;;;;;;4961995;28;20038;-75
2021/07/27 08:13:44;;;;;;;565.03;494.92;;;;;;;;;;4964489;28;20035;-77
2021/07/27 08:16:11;;;;;;;570.47;505.95;;;;;;;;;;4969069;28;20368;-75
2021/07/27 08:18:38;;;;;;;564.35;496.58;;;;;;;;;;4962009;28;20049;-74
2021/07/27 08:21:04;;;;;;;566.28;502.35;;;;;;;;;;4959041;28;20081;-75
2021/07/27 08:23:31;;;;;;;572.55;507.13;;;;;;;;;;4961881;28;20027;-75
2021/07/27 08:25:57;;;;;;;569.00;506.13;;;;;;;;;;4956608;28;20031;-78
2021/07/27 08:28:22;;;;;;;586.90;506.98;;;;;;;;;;4942511;28;20035;-77
2021/07/27 08:30:48;;;;;;;572.80;509.08;;;;;;;;;;4938826;28;20147;-78
2021/07/27 08:33:14;;;;;;;572.55;509.38;;;;;;;;;;4946169;28;20023;-77
2021/07/27 08:35:43;;;;;;;565.50;501.15;;;;;;;;;;4954320;28;20117;-79
2021/07/27 08:38:09;;;;;;;567.92;505.38;;;;;;;;;;4959769;28;20042;-77
2021/07/27 08:40:37;;;;;;;566.40;502.50;;;;;;;;;;4937181;28;20032;-78
2021/07/27 08:43:03;;;;;;;566.10;503.55;;;;;;;;;;4943498;28;20354;-77
2021/07/27 08:45:29;;;;;;;566.88;504.23;;;;;;;;;;4956356;28;20066;-78
2021/07/27 08:47:56;;;;;;;568.95;505.70;;;;;;;;;;4961999;28;20054;-78
2021/07/27 08:50:22;;;;;;;567.28;504.65;;;;;;;;;;4937786;28;20031;-76
2021/07/27 08:52:48;;;;;;;569.78;506.95;;;;;;;;;;4951261;28;20059;-77
2021/07/27 08:55:14;;;;;;;577.45;514.53;;;;;;;;;;4937030;28;20031;-78
2021/07/27 08:57:47;;;;;;;579.80;516.78;;;;;;;;;;4940029;28;20027;-77
2021/07/27 09:00:14;;;;;;;581.58;518.67;;;;;;;;;;4946850;28;20034;-77
2021/07/27 09:02:40;;;;;;;583.10;519.97;;;;;;;;;;4943372;28;20031;-77
2021/07/27 09:05:12;;;;;;;589.15;525.75;;;;;;;;;;4954598;28;20038;-74
2021/07/27 09:07:38;;;;;;;583.72;520.58;;;;;;;;;;4952406;28;20126;-74
2021/07/27 09:10:11;;;;;;;580.67;517.90;;;;;;;;;;4955867;28;20477;-77
2021/07/27 09:12:37;;;;;;;583.38;520.13;;;;;;;;;;4937499;28;20042;-75
2021/07/27 09:15:07;;;;;;;576.55;513.47;;;;;;;;;;4953147;28;20037;-76
2021/07/27 09:17:33;;;;;;;570.72;508.00;;;;;;;;;;4951786;28;20023;-74
2021/07/27 09:19:59;;;;;;;564.20;501.88;;;;;;;;;;4955240;28;20571;-78
2021/07/27 09:22:25;;;;;;;565.40;501.48;;;;;;;;;;4956854;28;20039;-76
2021/07/27 09:24:51;;;;;;;566.38;502.10;;;;;;;;;;4953775;28;20042;-74
2021/07/27 09:27:27;;;;;;;560.38;497.02;;;;;;;;;;4938796;29;20023;-75
2021/07/27 09:29:53;;;;;;;569.53;506.63;;;;;;;;;;4943597;28;20027;-75
2021/07/27 09:32:22;;;;;;;581.22;517.58;;;;;;;;;;4957144;28;20059;-74
2021/07/27 09:34:49;;;;;;;582.15;519.13;;;;;;;;;;4947568;28;20057;-75
2021/07/27 09:37:17;;;;;;;597.95;534.13;;;;;;;;;;4938858;28;20057;-75
2021/07/27 09:40:08;;;;;;;596.53;533.60;;;;;;;;;;4958293;28;20027;-85
2021/07/27 09:42:36;;;;;;;611.33;547.53;;;;;;;;;;4939692;28;20054;-75
2021/07/27 09:45:04;;;;;;;613.03;549.65;;;;;;;;;;4941707;28;20058;-76
2021/07/27 09:47:30;;;;;;;623.05;559.67;;;;;;;;;;4941252;28;20073;-77
2021/07/27 09:49:56;;;;;;;612.97;549.55;;;;;;;;;;4943117;28;20122;-75
2021/07/27 09:52:23;;;;;;;625.45;561.88;;;;;;;;;;4945465;28;20030;-77
2021/07/27 09:54:50;;;;;;;616.20;553.22;;;;;;;;;;4959910;28;20023;-75
2021/07/27 09:57:16;;;;;;;608.95;545.85;;;;;;;;;;4958978;28;20032;-75
2021/07/27 09:59:42;;;;;;;613.60;550.63;;;;;;;;;;4949373;28;20046;-75
2021/07/27 10:02:08;;;;;;;618.10;554.17;;;;;;;;;;4956320;28;20023;-75
2021/07/27 10:04:37;;;;;;;610.03;546.58;;;;;;;;;;4957316;28;20130;-75
2021/07/27 10:07:05;;;;;;;609.80;545.58;;;;;;;;;;4954370;28;20027;-74
2021/07/27 10:09:34;;;;;;;593.13;530.00;;;;;;;;;;4950326;28;20027;-75
2021/07/27 10:12:06;;;;;;;595.45;532.10;;;;;;;;;;4944393;28;20046;-79
2021/07/27 10:14:42;;;;;;;588.95;526.03;;;;;;;;;;4942165;28;20054;-82
2021/07/27 10:17:17;;;;;;;589.83;526.72;;;;;;;;;;4939599;28;20037;-81
2021/07/27 10:19:56;;;;;;;588.15;524.55;;;;;;;;;;4941631;28;20152;-81
2021/07/27 10:22:31;;;;;;;584.45;521.53;;;;;;;;;;4951193;28;20034;-83
2021/07/27 10:25:11;;;;;;;584.38;521.15;;;;;;;;;;4945712;28;20022;-82
2021/07/27 10:27:46;;;;;;;591.35;528.15;;;;;;;;;;4947767;29;20028;-82
2021/07/27 10:30:13;;;;;;;584.58;521.45;;;;;;;;;;4945753;28;20469;-81
2021/07/27 10:32:57;;;;;;;596.38;532.40;;;;;;;;;;4946931;28;20035;-83
2021/07/27 10:35:26;;;;;;;585.35;522.20;;;;;;;;;;4944105;28;20047;-81
2021/07/27 10:37:53;;;;;;;593.88;530.25;;;;;;;;;;4961319;28;20107;-82
2021/07/27 10:40:31;;;;;;;595.80;532.28;;;;;;;;;;4947650;28;20488;-81
2021/07/27 10:42:58;;;;;;;588.70;525.35;;;;;;;;;;4953380;28;20042;-75
2021/07/27 10:45:26;;;;;;;593.03;529.97;;;;;;;;;;4958952;28;20027;-75
2021/07/27 10:47:52;;;;;;;598.38;534.50;;;;;;;;;;4959546;28;20019;-75
2021/07/27 10:50:22;;;;;;;583.17;520.25;;;;;;;;;;4960805;28;20134;-74
2021/07/27 10:52:49;;;;;;;578.67;516.40;;;;;;;;;;4964603;28;20500;-75
2021/07/27 10:55:16;;;;;;;582.80;520.25;;;;;;;;;;4942083;28;20039;-74
2021/07/27 10:57:42;;;;;;;588.60;525.70;;;;;;;;;;4962772;28;20698;-74
2021/07/27 11:00:08;;;;;;;585.90;523.03;;;;;;;;;;4948878;28;20075;-74
2021/07/27 11:02:34;;;;;;;587.80;524.55;;;;;;;;;;4957126;28;20639;-74
2021/07/27 11:05:00;;;;;;;594.47;531.00;;;;;;;;;;4941953;28;20042;-74
2021/07/27 11:07:32;;;;;;;584.85;522.35;;;;;;;;;;4946729;28;20038;-74
2021/07/27 11:09:58;;;;;;;589.15;525.90;;;;;;;;;;4955302;28;20381;-74
2021/07/27 11:12:34;;;;;;;588.72;525.78;;;;;;;;;;4943539;28;20118;-74
2021/07/27 11:15:08;;;;;;;591.15;527.97;;;;;;;;;;4953847;28;20089;-75
2021/07/27 11:17:35;;;;;;;592.85;529.45;;;;;;;;;;4946192;28;20027;-74
2021/07/27 11:20:01;;;;;;;586.45;523.55;;;;;;;;;;4945994;28;20032;-73
2021/07/27 11:22:28;;;;;;;583.38;520.58;;;;;;;;;;4946624;28;20031;-74
2021/07/27 11:24:54;;;;;;;583.78;520.85;;;;;;;;;;4964906;28;20039;-74
2021/07/27 11:27:27;;;;;;;591.92;527.42;;;;;;;;;;4958854;28;20031;-74
2021/07/27 11:30:00;;;;;;;588.85;525.15;;;;;;;;;;4960310;28;20031;-74
2021/07/27 11:32:48;;;;;;;582.88;519.90;;;;;;;;;;4957431;28;20046;-75
2021/07/27 11:35:16;;;;;;;583.45;520.28;;;;;;;;;;4957322;28;20369;-74
2021/07/27 11:37:43;;;;;;;591.13;527.60;;;;;;;;;;4959243;28;20117;-75
2021/07/27 11:40:22;;;;;;;591.58;528.75;;;;;;;;;;4958691;28;20028;-74
2021/07/27 11:42:59;;;;;;;587.10;524.25;;;;;;;;;;4960456;28;20023;-74
2021/07/27 11:45:25;;;;;;;582.63;519.63;;;;;;;;;;4958980;28;20105;-75
2021/07/27 11:47:51;;;;;;;584.70;521.83;;;;;;;;;;4960528;28;20023;-73
2021/07/27 11:50:28;;;;;;;583.78;520.83;;;;;;;;;;4944415;28;20034;-73
2021/07/27 11:53:05;;;;;;;579.28;516.53;;;;;;;;;;4961131;28;20034;-76
2021/07/27 11:55:35;;;;;;;565.47;501.65;;;;;;;;;;4962441;28;20335;-75
2021/07/27 11:58:01;;;;;;;575.50;512.72;;;;;;;;;;4942055;29;20035;-74
2021/07/27 12:00:28;;;;;;;569.92;507.50;;;;;;;;;;4958900;28;20026;-74
2021/07/27 12:02:54;;;;;;;567.30;504.98;;;;;;;;;;4960498;28;20074;-74
2021/07/27 12:05:20;;;;;;;559.88;496.88;;;;;;;;;;4963632;28;20038;-74
2021/07/27 12:07:46;;;;;;;561.92;497.63;;;;;;;;;;4960041;28;20035;-75
2021/07/27 12:10:13;;;;;;;559.50;491.10;;;;;;;;;;4962424;28;20657;-73
2021/07/27 12:12:39;;;;;;;561.50;494.17;;;;;;;;;;4950876;28;20027;-75
2021/07/27 12:15:08;;;;;;;559.38;493.25;;;;;;;;;;4945404;28;20042;-74
2021/07/27 12:17:34;;;;;;;562.60;499.17;;;;;;;;;;4951149;28;20050;-74
2021/07/27 12:20:00;;;;;;;559.38;494.95;;;;;;;;;;4963406;28;20030;-74
2021/07/27 12:22:26;;;;;;;559.72;494.55;;;;;;;;;;4944360;28;20045;-74
2021/07/27 12:24:52;;;;;;;564.58;494.40;;;;;;;;;;4962269;28;20043;-74
2021/07/27 12:27:18;;;;;;;560.00;494.45;;;;;;;;;;4941202;28;20485;-74
2021/07/27 12:29:44;;;;;;;557.90;493.13;;;;;;;;;;4959804;28;20027;-74
2021/07/27 12:32:10;;;;;;;560.65;491.55;;;;;;;;;;4960458;28;20757;-75
2021/07/27 12:34:36;;;;;;;560.47;491.90;;;;;;;;;;4956794;28;20118;-75
2021/07/27 12:37:02;;;;;;;562.63;489.75;;;;;;;;;;4963299;28;20065;-74
2021/07/27 12:39:28;;;;;;;561.95;490.65;;;;;;;;;;4952407;28;20062;-74
2021/07/27 12:41:54;;;;;;;562.05;492.30;;;;;;;;;;4961349;28;20081;-75
2021/07/27 12:44:20;;;;;;;566.47;501.35;;;;;;;;;;4940204;28;20134;-75
2021/07/27 12:46:47;;;;;;;568.00;503.58;;;;;;;;;;4945855;28;20046;-74
2021/07/27 12:49:14;;;;;;;563.60;499.33;;;;;;;;;;4962335;28;20023;-75
2021/07/27 12:51:43;;;;;;;566.53;499.50;;;;;;;;;;4956940;28;20080;-74
2021/07/27 12:54:09;;;;;;;564.92;496.98;;;;;;;;;;4954581;28;20039;-74
2021/07/27 12:56:37;;;;;;;562.45;496.83;;;;;;;;;;4942123;29;20042;-73
2021/07/27 12:59:04;;;;;;;569.15;506.27;;;;;;;;;;4957826;28;20027;-74
2021/07/27 13:01:30;;;;;;;569.28;506.70;;;;;;;;;;4942140;28;20070;-75
2021/07/27 13:03:56;;;;;;;581.65;518.75;;;;;;;;;;4958644;28;20033;-75
2021/07/27 13:06:22;;;;;;;603.47;540.50;;;;;;;;;;4946435;28;20046;-76
2021/07/27 13:08:48;;;;;;;628.50;565.28;;;;;;;;;;4956430;28;20512;-74
2021/07/27 13:11:14;;;;;;;648.17;584.70;;;;;;;;;;4960509;28;20078;-75
2021/07/27 13:13:41;;;;;;;676.80;612.90;;;;;;;;;;4959122;28;20033;-74
2021/07/27 13:16:07;;;;;;;702.88;638.40;;;;;;;;;;4960399;28;20019;-75
2021/07/27 13:18:34;;;;;;;721.45;656.88;;;;;;;;;;4962853;28;20029;-74
2021/07/27 13:21:00;;;;;;;737.78;672.45;;;;;;;;;;4964481;28;20034;-75
2021/07/27 13:23:26;;;;;;;741.92;676.90;;;;;;;;;;4950010;28;20035;-74
2021/07/27 13:25:52;;;;;;;752.00;686.88;;;;;;;;;;4959469;28;20542;-73
2021/07/27 13:28:18;;;;;;;759.90;694.33;;;;;;;;;;4960175;28;20070;-75
2021/07/27 13:30:44;;;;;;;750.85;685.90;;;;;;;;;;4960623;28;20026;-74
2021/07/27 13:33:10;;;;;;;754.17;688.80;;;;;;;;;;4944027;28;20077;-74
2021/07/27 13:35:36;;;;;;;757.80;692.40;;;;;;;;;;4959570;28;20038;-74
2021/07/27 13:38:02;;;;;;;761.42;695.72;;;;;;;;;;4961869;28;20109;-74
2021/07/27 13:40:28;;;;;;;764.90;699.28;;;;;;;;;;4966055;28;20118;-74
2021/07/27 13:42:54;;;;;;;747.92;683.05;;;;;;;;;;4959063;28;20420;-74
2021/07/27 13:45:20;;;;;;;729.85;665.45;;;;;;;;;;4959118;28;20061;-75
2021/07/27 13:47:46;;;;;;;712.60;648.08;;;;;;;;;;4944100;28;20035;-74
2021/07/27 13:50:13;;;;;;;697.17;632.78;;;;;;;;;;4962616;28;20580;-75
2021/07/27 13:52:38;;;;;;;683.50;619.17;;;;;;;;;;4961420;28;20053;-74
2021/07/27 13:55:05;;;;;;;667.50;603.60;;;;;;;;;;4963729;28;20023;-74
2021/07/27 13:57:31;;;;;;;666.28;601.58;;;;;;;;;;4957742;28;20035;-74
2021/07/27 13:59:57;;;;;;;675.17;611.20;;;;;;;;;;4954913;28;20027;-74
2021/07/27 14:02:24;;;;;;;668.50;604.50;;;;;;;;;;4965242;28;20057;-74
2021/07/27 14:04:50;;;;;;;661.53;597.67;;;;;;;;;;4948202;28;20094;-74
2021/07/27 14:07:16;;;;;;;668.20;604.08;;;;;;;;;;4946446;28;20039;-74
2021/07/27 14:09:42;;;;;;;661.25;597.30;;;;;;;;;;4961209;28;20019;-74
2021/07/27 14:12:08;;;;;;;663.65;599.67;;;;;;;;;;4960195;28;20070;-74